sensor_id;sensor_type;location;lat;lon;timestamp;P1;durP1;ratioP1;P2;durP2;ratioP2
16099;SDS011;8154;50.830;12.082;2023-06-26T00:02:09;1.67;;;1.00;;
16099;SDS011;8154;50.830;12.082;2023-06-26T00:04:36;1.83;;;1.02;;
16099;SDS011;8154;50.830;12.082;2023-06-26T00:07:05;1.30;;;0.80;;
16099;SDS011;8154;50.830;12.082;2023-06-26T00:09:34;2.00;;;1.10;;
16099;SDS011;8154;50.830;12.082;2023-06-26T00:12:06;1.48;;;1.00;;
16099;SDS011;8154;50.830;12.082;2023-06-26T00:14:32;1.80;;;1.05;;
16099;SDS011;8154;50.830;12.082;2023-06-26T00:16:59;1.60;;;1.10;;
16099;SDS011;8154;50.830;12.082;2023-06-26T00:19:34;1.92;;;1.10;;
16099;SDS011;8154;50.830;12.082;2023-06-26T00:22:18;1.50;;;1.10;;
16099;SDS011;8154;50.830;12.082;2023-06-26T00:24:49;1.88;;;1.15;;
16099;SDS011;8154;50.830;12.082;2023-06-26T00:27:20;1.60;;;1.00;;
16099;SDS011;8154;50.830;12.082;2023-06-26T00:29:46;1.90;;;1.13;;
16099;SDS011;8154;50.830;12.082;2023-06-26T00:32:13;1.40;;;0.95;;
16099;SDS011;8154;50.830;12.082;2023-06-26T00:34:41;1.93;;;1.10;;
16099;SDS011;8154;50.830;12.082;2023-06-26T00:37:09;1.73;;;1.00;;
16099;SDS011;8154;50.830;12.082;2023-06-26T00:39:37;1.73;;;1.05;;
16099;SDS011;8154;50.830;12.082;2023-06-26T00:42:06;1.60;;;1.00;;
16099;SDS011;8154;50.830;12.082;2023-06-26T00:44:34;1.70;;;1.13;;
16099;SDS011;8154;50.830;12.082;2023-06-26T00:47:02;2.00;;;1.10;;
16099;SDS011;8154;50.830;12.082;2023-06-26T00:49:29;2.17;;;1.17;;
16099;SDS011;8154;50.830;12.082;2023-06-26T00:52:01;1.73;;;1.20;;
16099;SDS011;8154;50.830;12.082;2023-06-26T00:54:31;1.95;;;1.15;;
16099;SDS011;8154;50.830;12.082;2023-06-26T00:57:05;1.67;;;1.10;;
16099;SDS011;8154;50.830;12.082;2023-06-26T00:59:34;1.87;;;1.03;;
16099;SDS011;8154;50.830;12.082;2023-06-26T01:02:03;1.80;;;1.00;;
16099;SDS011;8154;50.830;12.082;2023-06-26T01:04:31;1.70;;;1.15;;
16099;SDS011;8154;50.830;12.082;2023-06-26T01:06:59;1.90;;;0.98;;
16099;SDS011;8154;50.830;12.082;2023-06-26T01:09:33;1.63;;;1.10;;
16099;SDS011;8154;50.830;12.082;2023-06-26T01:12:04;1.30;;;0.90;;
16099;SDS011;8154;50.830;12.082;2023-06-26T01:14:33;1.85;;;1.20;;
16099;SDS011;8154;50.830;12.082;2023-06-26T01:17:03;1.83;;;1.10;;
16099;SDS011;8154;50.830;12.082;2023-06-26T01:19:32;1.55;;;1.00;;
16099;SDS011;8154;50.830;12.082;2023-06-26T01:22:43;1.73;;;1.00;;
16099;SDS011;8154;50.830;12.082;2023-06-26T01:28:06;1.80;;;1.10;;
16099;SDS011;8154;50.830;12.082;2023-06-26T01:30:37;2.17;;;1.30;;
16099;SDS011;8154;50.830;12.082;2023-06-26T01:33:05;1.50;;;0.98;;
16099;SDS011;8154;50.830;12.082;2023-06-26T01:35:33;1.73;;;1.10;;
16099;SDS011;8154;50.830;12.082;2023-06-26T01:38:13;1.90;;;1.00;;
16099;SDS011;8154;50.830;12.082;2023-06-26T01:40:43;2.10;;;1.10;;
16099;SDS011;8154;50.830;12.082;2023-06-26T01:43:21;1.90;;;1.05;;
16099;SDS011;8154;50.830;12.082;2023-06-26T01:45:59;2.17;;;1.20;;
16099;SDS011;8154;50.830;12.082;2023-06-26T01:48:34;1.30;;;1.00;;
16099;SDS011;8154;50.830;12.082;2023-06-26T01:51:13;2.00;;;1.10;;
16099;SDS011;8154;50.830;12.082;2023-06-26T01:53:46;1.65;;;1.10;;
16099;SDS011;8154;50.830;12.082;2023-06-26T01:56:19;1.52;;;1.00;;
16099;SDS011;8154;50.830;12.082;2023-06-26T01:58:49;1.63;;;1.10;;
16099;SDS011;8154;50.830;12.082;2023-06-26T02:01:23;2.05;;;1.10;;
16099;SDS011;8154;50.830;12.082;2023-06-26T02:03:53;1.80;;;1.13;;
16099;SDS011;8154;50.830;12.082;2023-06-26T02:06:21;2.05;;;1.20;;
16099;SDS011;8154;50.830;12.082;2023-06-26T02:08:49;1.77;;;1.20;;
16099;SDS011;8154;50.830;12.082;2023-06-26T02:11:29;1.58;;;1.08;;
16099;SDS011;8154;50.830;12.082;2023-06-26T02:13:58;2.08;;;1.08;;
16099;SDS011;8154;50.830;12.082;2023-06-26T02:16:26;1.57;;;0.93;;
16099;SDS011;8154;50.830;12.082;2023-06-26T02:18:54;1.40;;;0.93;;
16099;SDS011;8154;50.830;12.082;2023-06-26T02:21:24;1.48;;;0.98;;
16099;SDS011;8154;50.830;12.082;2023-06-26T02:23:56;1.92;;;1.30;;
16099;SDS011;8154;50.830;12.082;2023-06-26T02:26:30;1.92;;;1.10;;
16099;SDS011;8154;50.830;12.082;2023-06-26T02:29:01;1.60;;;1.00;;
16099;SDS011;8154;50.830;12.082;2023-06-26T02:31:29;2.08;;;1.15;;
16099;SDS011;8154;50.830;12.082;2023-06-26T02:33:58;1.80;;;1.13;;
16099;SDS011;8154;50.830;12.082;2023-06-26T02:36:28;1.58;;;0.93;;
16099;SDS011;8154;50.830;12.082;2023-06-26T02:38:56;1.67;;;0.90;;
16099;SDS011;8154;50.830;12.082;2023-06-26T02:41:29;1.83;;;1.07;;
16099;SDS011;8154;50.830;12.082;2023-06-26T02:43:58;2.15;;;1.20;;
16099;SDS011;8154;50.830;12.082;2023-06-26T02:46:26;1.63;;;1.20;;
16099;SDS011;8154;50.830;12.082;2023-06-26T02:48:55;2.10;;;1.20;;
16099;SDS011;8154;50.830;12.082;2023-06-26T02:51:24;1.60;;;1.20;;
16099;SDS011;8154;50.830;12.082;2023-06-26T02:53:53;2.43;;;1.20;;
16099;SDS011;8154;50.830;12.082;2023-06-26T02:56:21;1.95;;;1.17;;
16099;SDS011;8154;50.830;12.082;2023-06-26T02:58:52;1.80;;;1.10;;
16099;SDS011;8154;50.830;12.082;2023-06-26T03:01:19;1.48;;;0.98;;
16099;SDS011;8154;50.830;12.082;2023-06-26T03:03:46;2.03;;;1.23;;
16099;SDS011;8154;50.830;12.082;2023-06-26T03:06:18;1.87;;;1.00;;
16099;SDS011;8154;50.830;12.082;2023-06-26T03:08:45;1.83;;;1.10;;
16099;SDS011;8154;50.830;12.082;2023-06-26T03:11:12;1.83;;;1.20;;
16099;SDS011;8154;50.830;12.082;2023-06-26T03:13:40;1.67;;;1.08;;
16099;SDS011;8154;50.830;12.082;2023-06-26T03:16:09;2.38;;;1.20;;
16099;SDS011;8154;50.830;12.082;2023-06-26T03:18:37;1.93;;;1.10;;
16099;SDS011;8154;50.830;12.082;2023-06-26T03:21:09;2.30;;;1.10;;
16099;SDS011;8154;50.830;12.082;2023-06-26T03:23:35;1.75;;;1.20;;
16099;SDS011;8154;50.830;12.082;2023-06-26T03:26:10;1.70;;;1.13;;
16099;SDS011;8154;50.830;12.082;2023-06-26T03:28:52;1.92;;;1.10;;
16099;SDS011;8154;50.830;12.082;2023-06-26T03:31:19;1.77;;;1.00;;
16099;SDS011;8154;50.830;12.082;2023-06-26T03:33:49;1.88;;;1.17;;
16099;SDS011;8154;50.830;12.082;2023-06-26T03:36:17;1.80;;;1.05;;
16099;SDS011;8154;50.830;12.082;2023-06-26T03:38:48;1.67;;;1.00;;
16099;SDS011;8154;50.830;12.082;2023-06-26T03:41:17;1.70;;;1.02;;
16099;SDS011;8154;50.830;12.082;2023-06-26T03:43:44;1.33;;;0.90;;
16099;SDS011;8154;50.830;12.082;2023-06-26T03:46:13;2.15;;;1.10;;
16099;SDS011;8154;50.830;12.082;2023-06-26T03:48:42;2.30;;;1.30;;
16099;SDS011;8154;50.830;12.082;2023-06-26T03:51:15;1.90;;;1.05;;
16099;SDS011;8154;50.830;12.082;2023-06-26T03:53:44;2.05;;;1.20;;
16099;SDS011;8154;50.830;12.082;2023-06-26T03:56:26;1.63;;;1.10;;
16099;SDS011;8154;50.830;12.082;2023-06-26T03:58:56;1.90;;;1.20;;
16099;SDS011;8154;50.830;12.082;2023-06-26T04:01:23;1.80;;;1.08;;
16099;SDS011;8154;50.830;12.082;2023-06-26T04:03:49;2.08;;;1.00;;
16099;SDS011;8154;50.830;12.082;2023-06-26T04:06:15;2.33;;;1.25;;
16099;SDS011;8154;50.830;12.082;2023-06-26T04:08:48;1.80;;;1.00;;
16099;SDS011;8154;50.830;12.082;2023-06-26T04:11:17;1.90;;;1.10;;
16099;SDS011;8154;50.830;12.082;2023-06-26T04:13:44;1.63;;;1.10;;
16099;SDS011;8154;50.830;12.082;2023-06-26T04:16:13;1.52;;;1.00;;
16099;SDS011;8154;50.830;12.082;2023-06-26T04:18:41;1.80;;;1.02;;
16099;SDS011;8154;50.830;12.082;2023-06-26T04:21:10;1.90;;;1.10;;
16099;SDS011;8154;50.830;12.082;2023-06-26T04:23:38;1.50;;;1.00;;
16099;SDS011;8154;50.830;12.082;2023-06-26T04:26:09;1.85;;;1.00;;
16099;SDS011;8154;50.830;12.082;2023-06-26T04:28:40;1.60;;;1.13;;
16099;SDS011;8154;50.830;12.082;2023-06-26T04:31:09;1.58;;;1.02;;
16099;SDS011;8154;50.830;12.082;2023-06-26T04:33:39;1.80;;;1.07;;
16099;SDS011;8154;50.830;12.082;2023-06-26T04:36:08;1.83;;;1.10;;
16099;SDS011;8154;50.830;12.082;2023-06-26T04:38:36;1.60;;;1.00;;
16099;SDS011;8154;50.830;12.082;2023-06-26T04:41:05;2.00;;;1.20;;
16099;SDS011;8154;50.830;12.082;2023-06-26T04:43:35;1.45;;;0.90;;
16099;SDS011;8154;50.830;12.082;2023-06-26T04:46:04;1.80;;;0.93;;
16099;SDS011;8154;50.830;12.082;2023-06-26T04:48:33;1.73;;;1.00;;
16099;SDS011;8154;50.830;12.082;2023-06-26T04:51:02;2.33;;;1.20;;
16099;SDS011;8154;50.830;12.082;2023-06-26T04:53:29;1.52;;;1.10;;
16099;SDS011;8154;50.830;12.082;2023-06-26T04:55:58;1.75;;;1.20;;
16099;SDS011;8154;50.830;12.082;2023-06-26T04:58:27;2.00;;;1.27;;
16099;SDS011;8154;50.830;12.082;2023-06-26T05:00:56;1.83;;;1.10;;
16099;SDS011;8154;50.830;12.082;2023-06-26T05:03:29;1.73;;;1.10;;
16099;SDS011;8154;50.830;12.082;2023-06-26T05:06:02;1.83;;;1.00;;
16099;SDS011;8154;50.830;12.082;2023-06-26T05:08:29;1.50;;;1.00;;
16099;SDS011;8154;50.830;12.082;2023-06-26T05:10:59;1.93;;;1.20;;
16099;SDS011;8154;50.830;12.082;2023-06-26T05:13:27;1.85;;;1.10;;
16099;SDS011;8154;50.830;12.082;2023-06-26T05:15:57;1.85;;;1.25;;
16099;SDS011;8154;50.830;12.082;2023-06-26T05:18:23;2.10;;;1.10;;
16099;SDS011;8154;50.830;12.082;2023-06-26T05:20:59;1.92;;;1.20;;
16099;SDS011;8154;50.830;12.082;2023-06-26T05:23:26;1.50;;;1.00;;
16099;SDS011;8154;50.830;12.082;2023-06-26T05:25:59;1.75;;;1.13;;
16099;SDS011;8154;50.830;12.082;2023-06-26T05:28:29;1.77;;;1.20;;
16099;SDS011;8154;50.830;12.082;2023-06-26T05:30:59;2.00;;;1.17;;
16099;SDS011;8154;50.830;12.082;2023-06-26T05:33:37;2.17;;;1.20;;
16099;SDS011;8154;50.830;12.082;2023-06-26T05:36:13;1.70;;;1.10;;
16099;SDS011;8154;50.830;12.082;2023-06-26T05:38:44;1.67;;;1.10;;
16099;SDS011;8154;50.830;12.082;2023-06-26T05:41:13;1.95;;;1.20;;
16099;SDS011;8154;50.830;12.082;2023-06-26T05:43:42;1.80;;;1.10;;
16099;SDS011;8154;50.830;12.082;2023-06-26T05:46:09;1.70;;;1.10;;
16099;SDS011;8154;50.830;12.082;2023-06-26T05:48:40;1.50;;;1.00;;
16099;SDS011;8154;50.830;12.082;2023-06-26T05:51:09;1.77;;;1.00;;
16099;SDS011;8154;50.830;12.082;2023-06-26T05:53:39;2.08;;;1.40;;
16099;SDS011;8154;50.830;12.082;2023-06-26T05:56:08;1.48;;;0.90;;
16099;SDS011;8154;50.830;12.082;2023-06-26T05:58:45;2.20;;;1.25;;
16099;SDS011;8154;50.830;12.082;2023-06-26T06:01:13;2.10;;;1.13;;
16099;SDS011;8154;50.830;12.082;2023-06-26T06:03:44;1.80;;;1.10;;
16099;SDS011;8154;50.830;12.082;2023-06-26T06:06:16;1.65;;;1.25;;
16099;SDS011;8154;50.830;12.082;2023-06-26T06:08:45;1.50;;;1.10;;
16099;SDS011;8154;50.830;12.082;2023-06-26T06:11:15;2.28;;;1.27;;
16099;SDS011;8154;50.830;12.082;2023-06-26T06:13:47;1.87;;;1.00;;
16099;SDS011;8154;50.830;12.082;2023-06-26T06:16:15;2.30;;;1.30;;
16099;SDS011;8154;50.830;12.082;2023-06-26T06:18:44;1.70;;;1.10;;
16099;SDS011;8154;50.830;12.082;2023-06-26T06:21:19;2.13;;;1.20;;
16099;SDS011;8154;50.830;12.082;2023-06-26T06:23:48;1.95;;;1.30;;
16099;SDS011;8154;50.830;12.082;2023-06-26T06:26:16;2.03;;;1.20;;
16099;SDS011;8154;50.830;12.082;2023-06-26T06:28:48;2.00;;;1.30;;
16099;SDS011;8154;50.830;12.082;2023-06-26T06:31:29;1.73;;;1.10;;
16099;SDS011;8154;50.830;12.082;2023-06-26T06:33:55;1.95;;;1.20;;
16099;SDS011;8154;50.830;12.082;2023-06-26T06:36:25;2.33;;;1.40;;
16099;SDS011;8154;50.830;12.082;2023-06-26T06:38:53;1.83;;;1.27;;
16099;SDS011;8154;50.830;12.082;2023-06-26T06:41:22;2.22;;;1.35;;
16099;SDS011;8154;50.830;12.082;2023-06-26T06:43:53;2.42;;;1.30;;
16099;SDS011;8154;50.830;12.082;2023-06-26T06:46:23;2.08;;;1.38;;
16099;SDS011;8154;50.830;12.082;2023-06-26T06:48:56;1.92;;;1.30;;
16099;SDS011;8154;50.830;12.082;2023-06-26T06:51:27;2.10;;;1.20;;
16099;SDS011;8154;50.830;12.082;2023-06-26T06:53:53;2.10;;;1.30;;
16099;SDS011;8154;50.830;12.082;2023-06-26T06:56:20;2.10;;;1.27;;
16099;SDS011;8154;50.830;12.082;2023-06-26T06:58:46;2.28;;;1.27;;
16099;SDS011;8154;50.830;12.082;2023-06-26T07:01:15;2.55;;;1.50;;
16099;SDS011;8154;50.830;12.082;2023-06-26T07:03:40;2.40;;;1.30;;
16099;SDS011;8154;50.830;12.082;2023-06-26T07:06:12;2.05;;;1.33;;
16099;SDS011;8154;50.830;12.082;2023-06-26T07:08:38;2.35;;;1.10;;
16099;SDS011;8154;50.830;12.082;2023-06-26T07:11:06;1.52;;;1.10;;
16099;SDS011;8154;50.830;12.082;2023-06-26T07:13:33;2.20;;;1.33;;
16099;SDS011;8154;50.830;12.082;2023-06-26T07:15:59;1.70;;;1.20;;
16099;SDS011;8154;50.830;12.082;2023-06-26T07:18:25;1.98;;;1.15;;
16099;SDS011;8154;50.830;12.082;2023-06-26T07:20:51;2.22;;;1.30;;
16099;SDS011;8154;50.830;12.082;2023-06-26T07:23:25;2.00;;;1.25;;
16099;SDS011;8154;50.830;12.082;2023-06-26T07:25:53;2.47;;;1.38;;
16099;SDS011;8154;50.830;12.082;2023-06-26T07:28:19;2.17;;;1.20;;
16099;SDS011;8154;50.830;12.082;2023-06-26T07:30:49;2.08;;;1.30;;
16099;SDS011;8154;50.830;12.082;2023-06-26T07:33:16;2.60;;;1.70;;
16099;SDS011;8154;50.830;12.082;2023-06-26T07:35:43;2.70;;;1.60;;
16099;SDS011;8154;50.830;12.082;2023-06-26T07:38:12;2.20;;;1.25;;
16099;SDS011;8154;50.830;12.082;2023-06-26T07:40:38;2.53;;;1.50;;
16099;SDS011;8154;50.830;12.082;2023-06-26T07:43:04;2.85;;;1.50;;
16099;SDS011;8154;50.830;12.082;2023-06-26T07:45:30;2.83;;;1.38;;
16099;SDS011;8154;50.830;12.082;2023-06-26T07:47:56;2.83;;;1.40;;
16099;SDS011;8154;50.830;12.082;2023-06-26T07:50:22;2.40;;;1.40;;
16099;SDS011;8154;50.830;12.082;2023-06-26T07:52:49;2.30;;;1.50;;
16099;SDS011;8154;50.830;12.082;2023-06-26T07:55:17;2.45;;;1.35;;
16099;SDS011;8154;50.830;12.082;2023-06-26T07:57:43;2.35;;;1.40;;
16099;SDS011;8154;50.830;12.082;2023-06-26T08:00:11;2.30;;;1.27;;
16099;SDS011;8154;50.830;12.082;2023-06-26T08:02:40;2.63;;;1.58;;
16099;SDS011;8154;50.830;12.082;2023-06-26T08:05:15;2.13;;;1.30;;
16099;SDS011;8154;50.830;12.082;2023-06-26T08:07:41;2.20;;;1.40;;
16099;SDS011;8154;50.830;12.082;2023-06-26T08:10:08;2.65;;;1.50;;
16099;SDS011;8154;50.830;12.082;2023-06-26T08:12:34;2.67;;;1.60;;
16099;SDS011;8154;50.830;12.082;2023-06-26T08:15:02;2.08;;;1.27;;
16099;SDS011;8154;50.830;12.082;2023-06-26T08:17:28;2.03;;;1.33;;
16099;SDS011;8154;50.830;12.082;2023-06-26T08:19:54;1.95;;;1.25;;
16099;SDS011;8154;50.830;12.082;2023-06-26T08:22:21;2.20;;;1.30;;
16099;SDS011;8154;50.830;12.082;2023-06-26T08:24:48;2.60;;;1.40;;
16099;SDS011;8154;50.830;12.082;2023-06-26T08:27:14;2.10;;;1.25;;
16099;SDS011;8154;50.830;12.082;2023-06-26T08:29:40;2.10;;;1.30;;
16099;SDS011;8154;50.830;12.082;2023-06-26T08:32:07;2.47;;;1.63;;
16099;SDS011;8154;50.830;12.082;2023-06-26T08:34:39;2.28;;;1.33;;
16099;SDS011;8154;50.830;12.082;2023-06-26T08:37:24;2.35;;;1.40;;
16099;SDS011;8154;50.830;12.082;2023-06-26T08:39:50;2.50;;;1.40;;
16099;SDS011;8154;50.830;12.082;2023-06-26T08:42:16;2.38;;;1.40;;
16099;SDS011;8154;50.830;12.082;2023-06-26T08:44:46;2.25;;;1.33;;
16099;SDS011;8154;50.830;12.082;2023-06-26T08:47:20;2.70;;;1.42;;
16099;SDS011;8154;50.830;12.082;2023-06-26T08:50:00;2.05;;;1.27;;
16099;SDS011;8154;50.830;12.082;2023-06-26T08:52:36;2.70;;;1.40;;
16099;SDS011;8154;50.830;12.082;2023-06-26T08:55:09;2.42;;;1.33;;
16099;SDS011;8154;50.830;12.082;2023-06-26T08:57:37;2.20;;;1.33;;
16099;SDS011;8154;50.830;12.082;2023-06-26T09:00:05;2.10;;;1.38;;
16099;SDS011;8154;50.830;12.082;2023-06-26T09:02:35;2.47;;;1.38;;
16099;SDS011;8154;50.830;12.082;2023-06-26T09:05:02;1.80;;;1.20;;
16099;SDS011;8154;50.830;12.082;2023-06-26T09:07:29;2.40;;;1.23;;
16099;SDS011;8154;50.830;12.082;2023-06-26T09:09:55;2.40;;;1.40;;
16099;SDS011;8154;50.830;12.082;2023-06-26T09:12:22;3.13;;;1.70;;
16099;SDS011;8154;50.830;12.082;2023-06-26T09:14:49;2.30;;;1.33;;
16099;SDS011;8154;50.830;12.082;2023-06-26T09:17:19;2.23;;;1.20;;
16099;SDS011;8154;50.830;12.082;2023-06-26T09:20:00;2.45;;;1.60;;
16099;SDS011;8154;50.830;12.082;2023-06-26T09:22:33;2.58;;;1.58;;
16099;SDS011;8154;50.830;12.082;2023-06-26T09:25:02;2.33;;;1.30;;
16099;SDS011;8154;50.830;12.082;2023-06-26T09:27:29;2.22;;;1.30;;
16099;SDS011;8154;50.830;12.082;2023-06-26T09:29:56;1.80;;;1.13;;
16099;SDS011;8154;50.830;12.082;2023-06-26T09:32:24;2.30;;;1.50;;
16099;SDS011;8154;50.830;12.082;2023-06-26T09:34:51;2.58;;;1.42;;
16099;SDS011;8154;50.830;12.082;2023-06-26T09:37:18;2.53;;;1.50;;
16099;SDS011;8154;50.830;12.082;2023-06-26T09:39:45;2.42;;;1.50;;
16099;SDS011;8154;50.830;12.082;2023-06-26T09:42:15;2.40;;;1.50;;
16099;SDS011;8154;50.830;12.082;2023-06-26T09:44:46;2.00;;;1.30;;
16099;SDS011;8154;50.830;12.082;2023-06-26T09:47:23;1.83;;;1.20;;
16099;SDS011;8154;50.830;12.082;2023-06-26T09:49:54;2.25;;;1.35;;
16099;SDS011;8154;50.830;12.082;2023-06-26T09:52:20;3.28;;;1.73;;
16099;SDS011;8154;50.830;12.082;2023-06-26T09:54:47;2.10;;;1.40;;
16099;SDS011;8154;50.830;12.082;2023-06-26T09:57:15;2.75;;;1.42;;
16099;SDS011;8154;50.830;12.082;2023-06-26T09:59:45;2.60;;;1.30;;
16099;SDS011;8154;50.830;12.082;2023-06-26T10:02:11;2.45;;;1.58;;
16099;SDS011;8154;50.830;12.082;2023-06-26T10:04:38;1.80;;;1.30;;
16099;SDS011;8154;50.830;12.082;2023-06-26T10:07:10;2.20;;;1.30;;
16099;SDS011;8154;50.830;12.082;2023-06-26T10:09:40;2.40;;;1.40;;
16099;SDS011;8154;50.830;12.082;2023-06-26T10:14:55;2.67;;;1.50;;
16099;SDS011;8154;50.830;12.082;2023-06-26T10:17:25;2.42;;;1.52;;
16099;SDS011;8154;50.830;12.082;2023-06-26T10:19:56;2.70;;;1.47;;
16099;SDS011;8154;50.830;12.082;2023-06-26T10:22:27;2.20;;;1.40;;
16099;SDS011;8154;50.830;12.082;2023-06-26T10:24:55;2.47;;;1.50;;
16099;SDS011;8154;50.830;12.082;2023-06-26T10:27:25;2.35;;;1.42;;
16099;SDS011;8154;50.830;12.082;2023-06-26T10:30:03;2.75;;;1.50;;
16099;SDS011;8154;50.830;12.082;2023-06-26T10:32:35;2.20;;;1.20;;
16099;SDS011;8154;50.830;12.082;2023-06-26T10:35:05;2.67;;;1.40;;
16099;SDS011;8154;50.830;12.082;2023-06-26T10:37:42;2.47;;;1.45;;
16099;SDS011;8154;50.830;12.082;2023-06-26T10:40:13;2.75;;;1.55;;
16099;SDS011;8154;50.830;12.082;2023-06-26T10:42:40;2.75;;;1.45;;
16099;SDS011;8154;50.830;12.082;2023-06-26T10:45:13;2.53;;;1.57;;
16099;SDS011;8154;50.830;12.082;2023-06-26T10:47:47;2.10;;;1.25;;
16099;SDS011;8154;50.830;12.082;2023-06-26T10:50:22;2.85;;;1.50;;
16099;SDS011;8154;50.830;12.082;2023-06-26T10:55:35;2.33;;;1.40;;
16099;SDS011;8154;50.830;12.082;2023-06-26T10:58:02;2.40;;;1.30;;
16099;SDS011;8154;50.830;12.082;2023-06-26T11:00:30;2.67;;;1.30;;
16099;SDS011;8154;50.830;12.082;2023-06-26T11:02:57;1.98;;;1.20;;
16099;SDS011;8154;50.830;12.082;2023-06-26T11:05:25;2.42;;;1.40;;
16099;SDS011;8154;50.830;12.082;2023-06-26T11:08:03;2.58;;;1.48;;
16099;SDS011;8154;50.830;12.082;2023-06-26T11:10:52;2.87;;;1.50;;
16099;SDS011;8154;50.830;12.082;2023-06-26T11:13:28;2.28;;;1.30;;
16099;SDS011;8154;50.830;12.082;2023-06-26T11:15:57;2.67;;;1.60;;
16099;SDS011;8154;50.830;12.082;2023-06-26T11:18:24;2.42;;;1.40;;
16099;SDS011;8154;50.830;12.082;2023-06-26T11:20:50;2.40;;;1.45;;
16099;SDS011;8154;50.830;12.082;2023-06-26T11:23:18;2.23;;;1.30;;
16099;SDS011;8154;50.830;12.082;2023-06-26T11:25:52;2.25;;;1.30;;
16099;SDS011;8154;50.830;12.082;2023-06-26T11:28:21;2.05;;;1.23;;
16099;SDS011;8154;50.830;12.082;2023-06-26T11:30:47;2.63;;;1.50;;
16099;SDS011;8154;50.830;12.082;2023-06-26T11:33:13;2.95;;;1.50;;
16099;SDS011;8154;50.830;12.082;2023-06-26T11:35:39;2.23;;;1.20;;
16099;SDS011;8154;50.830;12.082;2023-06-26T11:38:06;2.80;;;1.50;;
16099;SDS011;8154;50.830;12.082;2023-06-26T11:40:36;2.45;;;1.50;;
16099;SDS011;8154;50.830;12.082;2023-06-26T11:43:04;2.40;;;1.30;;
16099;SDS011;8154;50.830;12.082;2023-06-26T11:45:36;2.53;;;1.38;;
16099;SDS011;8154;50.830;12.082;2023-06-26T11:48:02;2.47;;;1.50;;
16099;SDS011;8154;50.830;12.082;2023-06-26T11:50:29;2.17;;;1.40;;
16099;SDS011;8154;50.830;12.082;2023-06-26T11:52:58;3.13;;;1.67;;
16099;SDS011;8154;50.830;12.082;2023-06-26T11:55:25;2.15;;;1.40;;
16099;SDS011;8154;50.830;12.082;2023-06-26T11:58:09;2.22;;;1.30;;
16099;SDS011;8154;50.830;12.082;2023-06-26T12:00:35;2.50;;;1.50;;
16099;SDS011;8154;50.830;12.082;2023-06-26T12:03:01;2.78;;;1.38;;
16099;SDS011;8154;50.830;12.082;2023-06-26T12:05:28;2.22;;;1.33;;
16099;SDS011;8154;50.830;12.082;2023-06-26T12:07:55;2.58;;;1.48;;
16099;SDS011;8154;50.830;12.082;2023-06-26T12:10:22;2.13;;;1.42;;
16099;SDS011;8154;50.830;12.082;2023-06-26T12:12:48;2.63;;;1.50;;
16099;SDS011;8154;50.830;12.082;2023-06-26T12:15:22;2.55;;;1.50;;
16099;SDS011;8154;50.830;12.082;2023-06-26T12:17:48;2.42;;;1.45;;
16099;SDS011;8154;50.830;12.082;2023-06-26T12:20:23;2.58;;;1.42;;
16099;SDS011;8154;50.830;12.082;2023-06-26T12:22:51;2.67;;;1.40;;
16099;SDS011;8154;50.830;12.082;2023-06-26T12:25:23;2.47;;;1.40;;
16099;SDS011;8154;50.830;12.082;2023-06-26T12:27:50;2.65;;;1.40;;
16099;SDS011;8154;50.830;12.082;2023-06-26T12:30:16;2.70;;;1.40;;
16099;SDS011;8154;50.830;12.082;2023-06-26T12:32:44;2.85;;;1.60;;
16099;SDS011;8154;50.830;12.082;2023-06-26T12:35:14;2.70;;;1.50;;
16099;SDS011;8154;50.830;12.082;2023-06-26T12:37:43;2.42;;;1.50;;
16099;SDS011;8154;50.830;12.082;2023-06-26T12:40:16;2.80;;;1.60;;
16099;SDS011;8154;50.830;12.082;2023-06-26T12:42:49;2.40;;;1.30;;
16099;SDS011;8154;50.830;12.082;2023-06-26T12:45:15;2.63;;;1.50;;
16099;SDS011;8154;50.830;12.082;2023-06-26T12:47:49;2.90;;;1.67;;
16099;SDS011;8154;50.830;12.082;2023-06-26T12:50:15;1.92;;;1.40;;
16099;SDS011;8154;50.830;12.082;2023-06-26T12:52:45;2.13;;;1.20;;
16099;SDS011;8154;50.830;12.082;2023-06-26T12:55:11;2.60;;;1.60;;
16099;SDS011;8154;50.830;12.082;2023-06-26T12:57:37;2.75;;;1.40;;
16099;SDS011;8154;50.830;12.082;2023-06-26T13:00:06;2.27;;;1.20;;
16099;SDS011;8154;50.830;12.082;2023-06-26T13:02:33;2.35;;;1.42;;
16099;SDS011;8154;50.830;12.082;2023-06-26T13:05:08;2.40;;;1.38;;
16099;SDS011;8154;50.830;12.082;2023-06-26T13:07:34;2.20;;;1.40;;
16099;SDS011;8154;50.830;12.082;2023-06-26T13:10:00;2.87;;;1.67;;
16099;SDS011;8154;50.830;12.082;2023-06-26T13:12:29;2.35;;;1.42;;
16099;SDS011;8154;50.830;12.082;2023-06-26T13:14:56;2.28;;;1.23;;
16099;SDS011;8154;50.830;12.082;2023-06-26T13:17:28;2.83;;;1.50;;
16099;SDS011;8154;50.830;12.082;2023-06-26T13:19:57;2.67;;;1.52;;
16099;SDS011;8154;50.830;12.082;2023-06-26T13:22:23;2.30;;;1.37;;
16099;SDS011;8154;50.830;12.082;2023-06-26T13:24:51;2.40;;;1.30;;
16099;SDS011;8154;50.830;12.082;2023-06-26T13:27:18;2.30;;;1.42;;
16099;SDS011;8154;50.830;12.082;2023-06-26T13:29:46;2.20;;;1.30;;
16099;SDS011;8154;50.830;12.082;2023-06-26T13:32:15;2.80;;;1.50;;
16099;SDS011;8154;50.830;12.082;2023-06-26T13:34:41;2.07;;;1.20;;
16099;SDS011;8154;50.830;12.082;2023-06-26T13:37:28;3.28;;;1.60;;
16099;SDS011;8154;50.830;12.082;2023-06-26T13:39:55;2.78;;;1.58;;
16099;SDS011;8154;50.830;12.082;2023-06-26T13:42:21;2.78;;;1.60;;
16099;SDS011;8154;50.830;12.082;2023-06-26T13:44:49;2.33;;;1.63;;
16099;SDS011;8154;50.830;12.082;2023-06-26T13:47:15;2.30;;;1.40;;
16099;SDS011;8154;50.830;12.082;2023-06-26T13:49:43;2.45;;;1.50;;
16099;SDS011;8154;50.830;12.082;2023-06-26T13:52:09;2.60;;;1.40;;
16099;SDS011;8154;50.830;12.082;2023-06-26T13:54:37;2.08;;;1.20;;
16099;SDS011;8154;50.830;12.082;2023-06-26T13:57:09;2.33;;;1.25;;
16099;SDS011;8154;50.830;12.082;2023-06-26T13:59:37;2.70;;;1.40;;
16099;SDS011;8154;50.830;12.082;2023-06-26T14:02:05;3.17;;;1.50;;
16099;SDS011;8154;50.830;12.082;2023-06-26T14:04:32;3.28;;;1.70;;
16099;SDS011;8154;50.830;12.082;2023-06-26T14:06:58;2.17;;;1.35;;
16099;SDS011;8154;50.830;12.082;2023-06-26T14:09:26;2.47;;;1.33;;
16099;SDS011;8154;50.830;12.082;2023-06-26T14:11:56;2.20;;;1.40;;
16099;SDS011;8154;50.830;12.082;2023-06-26T14:14:23;2.90;;;1.63;;
16099;SDS011;8154;50.830;12.082;2023-06-26T14:16:49;3.03;;;1.52;;
16099;SDS011;8154;50.830;12.082;2023-06-26T14:19:15;2.78;;;1.50;;
16099;SDS011;8154;50.830;12.082;2023-06-26T14:21:44;2.50;;;1.52;;
16099;SDS011;8154;50.830;12.082;2023-06-26T14:24:11;2.40;;;1.50;;
16099;SDS011;8154;50.830;12.082;2023-06-26T14:26:42;2.60;;;1.40;;
16099;SDS011;8154;50.830;12.082;2023-06-26T14:29:08;2.63;;;1.55;;
16099;SDS011;8154;50.830;12.082;2023-06-26T14:31:34;3.17;;;1.70;;
16099;SDS011;8154;50.830;12.082;2023-06-26T14:34:00;2.65;;;1.52;;
16099;SDS011;8154;50.830;12.082;2023-06-26T14:36:26;2.40;;;1.40;;
16099;SDS011;8154;50.830;12.082;2023-06-26T14:38:54;2.20;;;1.23;;
16099;SDS011;8154;50.830;12.082;2023-06-26T14:41:20;2.83;;;1.42;;
16099;SDS011;8154;50.830;12.082;2023-06-26T14:43:46;2.42;;;1.40;;
16099;SDS011;8154;50.830;12.082;2023-06-26T14:46:12;2.17;;;1.30;;
16099;SDS011;8154;50.830;12.082;2023-06-26T14:48:38;2.15;;;1.30;;
16099;SDS011;8154;50.830;12.082;2023-06-26T14:51:04;2.33;;;1.23;;
16099;SDS011;8154;50.830;12.082;2023-06-26T14:53:39;2.20;;;1.38;;
16099;SDS011;8154;50.830;12.082;2023-06-26T14:56:05;2.37;;;1.50;;
16099;SDS011;8154;50.830;12.082;2023-06-26T14:58:38;3.50;;;1.70;;
16099;SDS011;8154;50.830;12.082;2023-06-26T15:01:04;2.80;;;1.50;;
16099;SDS011;8154;50.830;12.082;2023-06-26T15:03:30;2.53;;;1.40;;
16099;SDS011;8154;50.830;12.082;2023-06-26T15:05:57;2.97;;;1.63;;
16099;SDS011;8154;50.830;12.082;2023-06-26T15:08:24;2.10;;;1.43;;
16099;SDS011;8154;50.830;12.082;2023-06-26T15:10:50;2.58;;;1.45;;